Time;durP1;ratioP1;P1;durP2;ratioP2;P2;SDS_P1;SDS_P2;PMS_P1;PMS_P2;Temp;Humidity;BMP_temperature;BMP_pressure;BME280_temperature;BME280_humidity;BME280_pressure;Samples;Min_cycle;Max_cycle;Signal;HPM_P1;HPM_P2
2023/03/13 00:01:19;;;;;;;0.40;0.10;;;;;;;;;;105391;1251;59617;-46
2023/03/13 00:03:47;;;;;;;0.90;0.20;;;;;;;;;;105637;1251;59739;-45
2023/03/13 00:06:19;;;;;;;0.60;0.20;;;;;;;;;;105221;1251;61398;-46
2023/03/13 00:08:47;;;;;;;0.70;0.20;;;;;;;;;;108506;1250;60010;-46
2023/03/13 00:11:16;;;;;;;0.60;0.30;;;;;;;;;;105823;1256;60769;-45
2023/03/13 00:13:43;;;;;;;0.60;0.20;;;;;;;;;;105442;1251;59726;-45
2023/03/13 00:16:18;;;;;;;0.40;0.20;;;;;;;;;;105507;1251;59618;-47
2023/03/13 00:18:46;;;;;;;0.50;0.20;;;;;;;;;;105312;1251;62262;-48
2023/03/13 00:21:14;;;;;;;0.70;0.30;;;;;;;;;;105507;1251;59752;-47
2023/03/13 00:23:53;;;;;;;0.30;0.20;;;;;;;;;;105162;1254;61299;-45
2023/03/13 00:26:22;;;;;;;1.30;0.30;;;;;;;;;;105130;1255;59704;-48
2023/03/13 00:28:50;;;;;;;1.50;0.40;;;;;;;;;;105380;1254;58975;-48
2023/03/13 00:31:21;;;;;;;2.30;0.30;;;;;;;;;;105183;1254;61302;-48
2023/03/13 00:33:52;;;;;;;1.50;0.30;;;;;;;;;;106133;1251;59654;-48
2023/03/13 00:36:24;;;;;;;0.90;0.20;;;;;;;;;;105597;1257;59516;-47
2023/03/13 00:38:53;;;;;;;0.90;0.30;;;;;;;;;;105701;1250;59723;-47
2023/03/13 00:41:21;;;;;;;1.40;0.30;;;;;;;;;;105544;1251;59585;-47
2023/03/13 00:43:53;;;;;;;0.80;0.20;;;;;;;;;;105312;1257;60339;-46
2023/03/13 00:46:22;;;;;;;1.30;0.30;;;;;;;;;;105385;1251;59812;-47
2023/03/13 00:48:50;;;;;;;2.50;0.30;;;;;;;;;;106199;1253;60744;-46
2023/03/13 00:51:19;;;;;;;1.40;0.20;;;;;;;;;;105688;1254;59625;-45
2023/03/13 00:53:48;;;;;;;2.00;0.20;;;;;;;;;;105287;1251;59877;-47
2023/03/13 00:56:16;;;;;;;0.30;0.10;;;;;;;;;;109165;1251;61143;-47
2023/03/13 00:58:44;;;;;;;0.40;0.20;;;;;;;;;;106403;1256;58913;-45
2023/03/13 01:01:13;;;;;;;1.00;0.30;;;;;;;;;;105607;1250;60825;-46
2023/03/13 01:03:44;;;;;;;2.20;0.30;;;;;;;;;;105437;1254;59595;-48
2023/03/13 01:06:13;;;;;;;2.20;0.30;;;;;;;;;;105574;1251;59595;-47
2023/03/13 01:08:41;;;;;;;1.20;0.30;;;;;;;;;;105385;1250;60249;-45
2023/03/13 01:11:10;;;;;;;0.80;0.30;;;;;;;;;;105612;1251;59694;-46
2023/03/13 01:13:39;;;;;;;0.70;0.30;;;;;;;;;;105173;1251;60957;-44
2023/03/13 01:16:16;;;;;;;1.10;0.40;;;;;;;;;;105231;1250;60529;-46
2023/03/13 01:18:50;;;;;;;0.90;0.50;;;;;;;;;;105456;1251;60460;-47
2023/03/13 01:21:19;;;;;;;1.70;0.50;;;;;;;;;;105638;1251;61864;-44
2023/03/13 01:23:47;;;;;;;2.40;0.40;;;;;;;;;;104944;1251;60542;-46
2023/03/13 01:26:16;;;;;;;0.80;0.40;;;;;;;;;;105313;1257;60950;-47
2023/03/13 01:28:49;;;;;;;1.80;0.40;;;;;;;;;;105863;1254;61148;-46
2023/03/13 01:31:24;;;;;;;1.00;0.40;;;;;;;;;;106092;1253;60350;-45
2023/03/13 01:33:59;;;;;;;0.80;0.40;;;;;;;;;;109280;1250;61487;-46
2023/03/13 01:36:29;;;;;;;1.10;0.50;;;;;;;;;;105465;1251;60513;-47
2023/03/13 01:38:58;;;;;;;1.30;0.50;;;;;;;;;;105374;1257;60581;-47
2023/03/13 01:41:28;;;;;;;1.50;0.50;;;;;;;;;;109322;1251;59367;-48
2023/03/13 01:43:58;;;;;;;0.70;0.30;;;;;;;;;;107828;1251;60447;-45
2023/03/13 01:46:44;;;;;;;0.70;0.30;;;;;;;;;;106071;1251;61966;-48
2023/03/13 01:49:33;;;;;;;1.90;0.30;;;;;;;;;;105591;1251;60450;-45
2023/03/13 01:52:14;;;;;;;0.60;0.30;;;;;;;;;;105448;1251;62362;-42
2023/03/13 01:54:50;;;;;;;1.10;0.30;;;;;;;;;;105526;1256;60523;-46
2023/03/13 01:57:19;;;;;;;0.90;0.20;;;;;;;;;;105340;1252;60409;-46
2023/03/13 02:00:07;;;;;;;0.60;0.20;;;;;;;;;;105345;1251;60583;-47
2023/03/13 02:02:47;;;;;;;1.10;0.20;;;;;;;;;;105328;1253;60654;-47
2023/03/13 02:05:15;;;;;;;0.40;0.10;;;;;;;;;;105306;1259;60742;-46
2023/03/13 02:07:54;;;;;;;2.20;0.20;;;;;;;;;;105772;1251;60521;-45
2023/03/13 02:10:22;;;;;;;0.50;0.20;;;;;;;;;;105387;1252;60444;-47
2023/03/13 02:12:50;;;;;;;1.70;0.20;;;;;;;;;;105505;1252;62193;-46
2023/03/13 02:15:20;;;;;;;0.40;0.20;;;;;;;;;;105112;1254;61199;-47
2023/03/13 02:17:48;;;;;;;0.30;0.10;;;;;;;;;;107869;1250;60871;-47
2023/03/13 02:20:21;;;;;;;1.00;0.10;;;;;;;;;;105271;1257;60757;-47
2023/03/13 02:22:55;;;;;;;1.00;0.30;;;;;;;;;;105673;1250;60386;-46
2023/03/13 02:25:24;;;;;;;0.20;0.10;;;;;;;;;;108509;1251;62326;-47
2023/03/13 02:28:04;;;;;;;0.20;0.10;;;;;;;;;;105458;1253;60444;-46
2023/03/13 02:30:34;;;;;;;0.30;0.10;;;;;;;;;;105091;1256;60819;-47
2023/03/13 02:33:02;;;;;;;0.30;0.20;;;;;;;;;;106101;1250;60488;-48
2023/03/13 02:35:37;;;;;;;1.30;0.20;;;;;;;;;;105277;1250;60398;-45
2023/03/13 02:38:09;;;;;;;1.30;0.10;;;;;;;;;;109326;1250;60838;-47
2023/03/13 02:40:38;;;;;;;0.10;0.10;;;;;;;;;;105764;1251;60539;-47
2023/03/13 02:43:29;;;;;;;0.30;0.10;;;;;;;;;;106395;1250;60781;-47
2023/03/13 02:46:00;;;;;;;2.60;0.20;;;;;;;;;;106317;1250;60408;-42
2023/03/13 02:48:39;;;;;;;0.30;0.10;;;;;;;;;;105404;1251;60586;-43
2023/03/13 02:51:10;;;;;;;0.60;0.20;;;;;;;;;;106195;1250;62182;-44
2023/03/13 02:53:38;;;;;;;0.70;0.20;;;;;;;;;;105633;1255;60657;-43
2023/03/13 02:56:06;;;;;;;0.60;0.20;;;;;;;;;;105333;1251;60725;-45
2023/03/13 02:58:38;;;;;;;0.90;0.20;;;;;;;;;;105661;1253;60475;-44
2023/03/13 03:01:17;;;;;;;0.70;0.50;;;;;;;;;;105762;1256;60315;-44
2023/03/13 03:03:45;;;;;;;1.20;0.20;;;;;;;;;;105399;1253;62218;-44
2023/03/13 03:06:14;;;;;;;0.50;0.20;;;;;;;;;;105587;1251;60412;-45
2023/03/13 03:08:42;;;;;;;2.70;0.20;;;;;;;;;;105715;1250;61016;-45
2023/03/13 03:11:11;;;;;;;2.60;0.20;;;;;;;;;;105587;1253;60456;-45
2023/03/13 03:13:40;;;;;;;0.40;0.10;;;;;;;;;;105188;1251;60431;-43
2023/03/13 03:16:09;;;;;;;0.20;0.10;;;;;;;;;;105457;1250;62163;-46
2023/03/13 03:18:37;;;;;;;1.20;0.20;;;;;;;;;;105338;1253;60480;-44
2023/03/13 03:21:05;;;;;;;0.70;0.20;;;;;;;;;;105560;1254;60861;-45
2023/03/13 03:23:37;;;;;;;1.20;0.20;;;;;;;;;;105602;1253;60443;-45
2023/03/13 03:26:05;;;;;;;0.70;0.20;;;;;;;;;;105440;1251;61008;-44
2023/03/13 03:28:34;;;;;;;3.80;0.20;;;;;;;;;;105420;1254;62166;-44
2023/03/13 03:31:09;;;;;;;2.30;0.20;;;;;;;;;;105692;1253;60812;-45
2023/03/13 03:33:37;;;;;;;1.10;0.20;;;;;;;;;;105338;1256;60456;-45
2023/03/13 03:36:11;;;;;;;0.50;0.20;;;;;;;;;;105539;1250;60315;-45
2023/03/13 03:38:40;;;;;;;1.60;0.30;;;;;;;;;;105372;1251;60456;-44
2023/03/13 03:41:09;;;;;;;0.50;0.20;;;;;;;;;;105627;1251;62692;-45
2023/03/13 03:43:36;;;;;;;0.80;0.30;;;;;;;;;;107076;1250;58933;-44
2023/03/13 03:46:05;;;;;;;0.70;0.30;;;;;;;;;;105462;1251;60922;-45
2023/03/13 03:48:34;;;;;;;0.50;0.30;;;;;;;;;;105600;1250;60428;-44
2023/03/13 03:51:04;;;;;;;0.90;0.40;;;;;;;;;;105693;1250;60415;-44
2023/03/13 03:53:36;;;;;;;0.70;0.30;;;;;;;;;;105736;1250;62202;-44
2023/03/13 03:56:04;;;;;;;2.40;0.50;;;;;;;;;;105544;1252;60408;-46
2023/03/13 03:58:32;;;;;;;1.60;0.40;;;;;;;;;;105581;1251;60428;-45
2023/03/13 04:01:10;;;;;;;0.80;0.30;;;;;;;;;;105396;1253;60415;-44
2023/03/13 04:03:38;;;;;;;0.50;0.30;;;;;;;;;;105898;1250;60596;-44
2023/03/13 04:06:08;;;;;;;0.60;0.30;;;;;;;;;;105748;1251;62032;-46
2023/03/13 04:08:36;;;;;;;1.10;0.30;;;;;;;;;;105396;1253;60424;-45
2023/03/13 04:11:04;;;;;;;3.00;0.50;;;;;;;;;;105429;1250;60428;-46
2023/03/13 04:13:36;;;;;;;1.20;0.40;;;;;;;;;;105207;1254;60446;-45
2023/03/13 04:16:08;;;;;;;2.00;0.30;;;;;;;;;;105325;1251;60482;-45
2023/03/13 04:18:36;;;;;;;0.90;0.40;;;;;;;;;;105974;1250;62418;-45
2023/03/13 04:21:04;;;;;;;1.40;0.30;;;;;;;;;;105358;1256;60374;-46
2023/03/13 04:23:49;;;;;;;;;;;;;;;;;;105353;1251;60393;-44
2023/03/13 04:26:17;;;;;;;1.30;0.20;;;;;;;;;;106373;1251;60495;-45
2023/03/13 04:28:46;;;;;;;1.40;0.40;;;;;;;;;;106132;1253;60354;-44
2023/03/13 04:31:19;;;;;;;1.20;0.40;;;;;;;;;;105522;1251;61999;-43
2023/03/13 04:34:13;;;;;;;1.60;0.40;;;;;;;;;;105296;1250;60410;-43
2023/03/13 04:37:05;;;;;;;0.80;0.40;;;;;;;;;;105836;1253;60766;-44
2023/03/13 04:39:51;;;;;;;2.90;0.40;;;;;;;;;;105856;1253;60619;-45
2023/03/13 04:42:40;;;;;;;0.90;0.50;;;;;;;;;;105456;1251;60440;-43
2023/03/13 04:45:29;;;;;;;1.40;0.40;;;;;;;;;;105301;1252;62418;-45
2023/03/13 04:48:13;;;;;;;1.40;0.60;;;;;;;;;;105624;1253;60337;-45
2023/03/13 04:50:57;;;;;;;1.40;0.40;;;;;;;;;;105425;1256;60656;-43
2023/03/13 04:53:45;;;;;;;2.60;0.40;;;;;;;;;;105508;1251;60322;-43
2023/03/13 04:56:20;;;;;;;3.50;0.40;;;;;;;;;;105451;1251;60453;-44
2023/03/13 04:59:22;;;;;;;1.00;0.40;;;;;;;;;;105289;1251;61255;-43
2023/03/13 05:02:02;;;;;;;1.20;0.60;;;;;;;;;;105977;1250;60441;-45
2023/03/13 05:04:53;;;;;;;2.00;0.40;;;;;;;;;;105547;1251;60661;-46
2023/03/13 05:07:30;;;;;;;1.30;0.50;;;;;;;;;;105456;1251;60380;-46
2023/03/13 05:10:02;;;;;;;1.10;0.50;;;;;;;;;;105402;1252;60489;-45
2023/03/13 05:13:04;;;;;;;2.20;0.50;;;;;;;;;;105400;1251;62431;-45
2023/03/13 05:15:55;;;;;;;1.40;0.60;;;;;;;;;;105455;1251;60440;-45
2023/03/13 05:18:38;;;;;;;1.30;0.50;;;;;;;;;;105446;1251;60481;-45
2023/03/13 05:21:30;;;;;;;1.70;0.50;;;;;;;;;;105289;1250;60568;-46
2023/03/13 05:24:05;;;;;;;3.30;0.60;;;;;;;;;;105551;1250;60403;-45
2023/03/13 05:26:52;;;;;;;2.80;0.60;;;;;;;;;;105359;1251;61854;-46
2023/03/13 05:29:49;;;;;;;2.70;0.70;;;;;;;;;;104635;1256;61046;-45
2023/03/13 05:32:44;;;;;;;2.40;0.60;;;;;;;;;;105309;1250;62220;-46
2023/03/13 05:35:35;;;;;;;2.80;0.50;;;;;;;;;;105124;1250;60507;-45
2023/03/13 05:38:22;;;;;;;1.00;0.50;;;;;;;;;;105454;1251;60431;-46
2023/03/13 05:41:09;;;;;;;4.10;0.60;;;;;;;;;;105438;1251;61975;-46
2023/03/13 05:43:37;;;;;;;2.20;0.50;;;;;;;;;;105431;1253;60427;-47
2023/03/13 05:46:24;;;;;;;3.90;0.70;;;;;;;;;;105420;1253;60418;-48
2023/03/13 05:49:10;;;;;;;2.80;0.70;;;;;;;;;;105428;1253;60408;-47
2023/03/13 05:51:57;;;;;;;3.60;0.70;;;;;;;;;;105453;1250;60319;-48
2023/03/13 05:54:41;;;;;;;1.80;0.70;;;;;;;;;;105437;1253;62361;-48
2023/03/13 05:57:42;;;;;;;1.30;0.70;;;;;;;;;;105377;1253;60488;-47
2023/03/13 06:00:20;;;;;;;2.00;0.70;;;;;;;;;;105292;1253;61554;-47
2023/03/13 06:03:04;;;;;;;3.00;0.50;;;;;;;;;;105450;1256;60523;-48
2023/03/13 06:05:42;;;;;;;1.30;0.50;;;;;;;;;;105370;1253;60361;-45
2023/03/13 06:08:23;;;;;;;2.50;0.60;;;;;;;;;;105392;1252;63718;-47
2023/03/13 06:10:51;;;;;;;2.00;0.60;;;;;;;;;;105905;1256;59033;-49
2023/03/13 06:13:19;;;;;;;1.90;0.60;;;;;;;;;;105074;1254;60599;-49
2023/03/13 06:15:51;;;;;;;1.30;0.50;;;;;;;;;;109132;1253;58389;-47
2023/03/13 06:18:38;;;;;;;2.30;0.60;;;;;;;;;;109195;1251;58558;-47
2023/03/13 06:21:06;;;;;;;4.50;0.70;;;;;;;;;;105594;1253;61186;-48
2023/03/13 06:23:34;;;;;;;3.40;0.70;;;;;;;;;;105142;1256;60546;-47
2023/03/13 06:26:02;;;;;;;1.90;0.80;;;;;;;;;;109260;1251;60681;-47
2023/03/13 06:28:30;;;;;;;4.20;0.90;;;;;;;;;;107195;1251;60511;-48
2023/03/13 06:31:01;;;;;;;1.60;0.90;;;;;;;;;;105344;1251;60488;-48
2023/03/13 06:33:29;;;;;;;1.40;0.80;;;;;;;;;;105722;1250;62108;-47
2023/03/13 06:35:59;;;;;;;1.80;0.90;;;;;;;;;;105259;1256;60528;-48
2023/03/13 06:38:27;;;;;;;3.50;1.10;;;;;;;;;;105513;1251;60968;-48
2023/03/13 06:40:55;;;;;;;2.40;0.70;;;;;;;;;;105477;1255;60428;-48
2023/03/13 06:43:23;;;;;;;2.30;0.90;;;;;;;;;;105505;1251;60466;-43
2023/03/13 06:45:51;;;;;;;1.70;0.80;;;;;;;;;;105569;1252;61877;-48
2023/03/13 06:48:21;;;;;;;1.30;0.70;;;;;;;;;;105418;1252;60336;-47
2023/03/13 06:50:50;;;;;;;3.20;0.90;;;;;;;;;;105453;1252;61269;-48
2023/03/13 06:53:18;;;;;;;3.60;0.80;;;;;;;;;;105371;1251;60514;-48
2023/03/13 06:55:47;;;;;;;1.90;0.80;;;;;;;;;;105602;1253;60354;-47
2023/03/13 06:58:16;;;;;;;2.10;1.00;;;;;;;;;;106083;1253;61860;-47
2023/03/13 07:00:59;;;;;;;3.00;0.90;;;;;;;;;;105591;1251;60546;-48
2023/03/13 07:03:27;;;;;;;2.90;1.40;;;;;;;;;;105391;1250;61202;-48
2023/03/13 07:05:56;;;;;;;1.90;1.00;;;;;;;;;;106883;1253;60450;-48
2023/03/13 07:08:25;;;;;;;3.10;0.90;;;;;;;;;;105892;1250;60468;-49
2023/03/13 07:11:00;;;;;;;1.60;0.90;;;;;;;;;;105422;1250;62516;-49
2023/03/13 07:13:29;;;;;;;1.60;0.90;;;;;;;;;;105410;1253;60549;-50
2023/03/13 07:16:03;;;;;;;2.90;1.00;;;;;;;;;;105483;1251;60748;-50
2023/03/13 07:18:33;;;;;;;3.10;0.90;;;;;;;;;;105536;1251;60411;-49
2023/03/13 07:21:03;;;;;;;1.60;0.90;;;;;;;;;;105554;1250;60414;-49
2023/03/13 07:23:32;;;;;;;2.00;0.90;;;;;;;;;;105896;1251;62115;-49
2023/03/13 07:26:01;;;;;;;2.60;1.00;;;;;;;;;;105501;1253;60427;-51
2023/03/13 07:28:30;;;;;;;1.80;1.00;;;;;;;;;;105442;1251;60447;-50
2023/03/13 07:31:07;;;;;;;3.30;0.90;;;;;;;;;;105277;1251;60428;-51
2023/03/13 07:33:35;;;;;;;2.40;0.90;;;;;;;;;;105351;1250;60393;-51
2023/03/13 07:36:03;;;;;;;2.10;0.90;;;;;;;;;;105558;1251;62192;-50
2023/03/13 07:38:31;;;;;;;3.00;0.80;;;;;;;;;;105654;1250;60498;-50
2023/03/13 07:41:00;;;;;;;3.50;0.90;;;;;;;;;;105285;1251;60723;-51
2023/03/13 07:43:30;;;;;;;5.00;0.80;;;;;;;;;;105563;1252;60443;-50
2023/03/13 07:46:02;;;;;;;3.80;0.80;;;;;;;;;;106119;1253;60297;-51
2023/03/13 07:48:32;;;;;;;;;;;;;;;;;;107345;1253;62281;-54
2023/03/13 07:51:00;;;;;;;1.70;0.90;;;;;;;;;;105523;1253;59817;-55
2023/03/13 07:53:28;;;;;;;2.70;0.60;;;;;;;;;;105121;1250;60823;-52
2023/03/13 07:55:56;;;;;;;2.50;1.00;;;;;;;;;;105619;1253;60409;-56
2023/03/13 07:58:25;;;;;;;1.10;0.70;;;;;;;;;;105034;1250;61056;-55
2023/03/13 08:00:53;;;;;;;2.50;0.80;;;;;;;;;;105283;1251;61923;-55
2023/03/13 08:03:21;;;;;;;2.10;1.00;;;;;;;;;;105139;1250;60986;-54
2023/03/13 08:06:03;;;;;;;1.60;0.60;;;;;;;;;;105637;1251;61560;-56
2023/03/13 08:08:31;;;;;;;2.50;1.40;;;;;;;;;;105307;1253;60552;-54
2023/03/13 08:11:00;;;;;;;2.10;0.70;;;;;;;;;;105322;1251;60360;-55
2023/03/13 08:13:30;;;;;;;1.20;0.70;;;;;;;;;;105044;1254;61040;-54
2023/03/13 08:16:05;;;;;;;1.40;0.80;;;;;;;;;;106882;1253;60404;-55
2023/03/13 08:18:33;;;;;;;1.60;0.70;;;;;;;;;;105633;1250;61184;-53
2023/03/13 08:21:07;;;;;;;2.90;0.80;;;;;;;;;;104938;1253;60552;-52
2023/03/13 08:23:35;;;;;;;4.00;0.80;;;;;;;;;;104980;1251;60366;-52
2023/03/13 08:26:07;;;;;;;3.40;0.70;;;;;;;;;;104975;1250;62100;-51
2023/03/13 08:28:35;;;;;;;2.80;0.90;;;;;;;;;;105170;1253;60639;-50
2023/03/13 08:31:14;;;;;;;5.20;0.60;;;;;;;;;;105376;1253;60543;-51
2023/03/13 08:33:44;;;;;;;1.30;0.90;;;;;;;;;;105028;1250;61173;-50
2023/03/13 08:36:23;;;;;;;2.60;0.90;;;;;;;;;;105227;1251;60425;-51
2023/03/13 08:38:52;;;;;;;5.70;1.80;;;;;;;;;;105108;1253;62389;-50
2023/03/13 08:41:21;;;;;;;4.00;0.90;;;;;;;;;;105282;1253;60434;-50
2023/03/13 08:43:50;;;;;;;3.40;0.80;;;;;;;;;;106414;1251;60755;-50
2023/03/13 08:46:18;;;;;;;1.30;0.70;;;;;;;;;;105250;1253;60459;-49
2023/03/13 08:48:50;;;;;;;1.00;0.70;;;;;;;;;;105275;1250;61725;-50
2023/03/13 08:51:18;;;;;;;2.40;0.60;;;;;;;;;;105649;1253;62306;-49
2023/03/13 08:53:47;;;;;;;2.70;0.90;;;;;;;;;;105676;1253;60386;-48
2023/03/13 08:56:22;;;;;;;1.50;0.70;;;;;;;;;;105326;1251;60904;-50
2023/03/13 08:58:54;;;;;;;1.30;0.70;;;;;;;;;;105693;1251;60481;-50
2023/03/13 09:01:22;;;;;;;1.70;0.90;;;;;;;;;;105290;1251;60434;-50
2023/03/13 09:03:51;;;;;;;3.00;0.70;;;;;;;;;;105214;1251;61986;-49
2023/03/13 09:06:19;;;;;;;3.00;0.90;;;;;;;;;;105451;1250;60438;-49
2023/03/13 09:08:51;;;;;;;1.90;0.80;;;;;;;;;;105455;1253;60804;-49
2023/03/13 09:11:20;;;;;;;1.30;0.70;;;;;;;;;;105421;1251;60465;-49
2023/03/13 09:13:51;;;;;;;1.50;0.70;;;;;;;;;;105328;1250;60528;-49
2023/03/13 09:16:20;;;;;;;2.20;0.70;;;;;;;;;;104878;1251;62332;-49
2023/03/13 09:18:49;;;;;;;1.70;0.70;;;;;;;;;;106681;1253;144975;-49
2023/03/13 09:22:22;;;;;;;2.10;0.80;;;;;;;-128.00;-1.00;-1.00;99853;1291;1003101;-48
2023/03/13 09:24:50;;;;;;;1.60;0.70;;;;;;;-128.00;-1.00;-1.00;101961;1270;1010136;-48
2023/03/13 09:27:19;;;;;;;1.30;0.60;;;;;;;-128.00;-1.00;-1.00;101372;1270;1010655;-48
2023/03/13 09:29:47;;;;;;;1.70;0.60;;;;;;;-128.00;-1.00;-1.00;101581;1267;1004176;-49
2023/03/13 09:32:15;;;;;;;2.20;0.70;;;;;;;-128.00;-1.00;-1.00;101412;1266;1015790;-50
2023/03/13 09:34:43;;;;;;;1.30;0.80;;;;;;;-128.00;-1.00;-1.00;102220;1267;1012997;-45
2023/03/13 09:37:11;;;;;;;2.00;0.80;;;;;;;-128.00;-1.00;-1.00;101353;1268;1002684;-51
2023/03/13 09:39:40;;;;;;;0.80;0.60;;;;;;;-128.00;-1.00;-1.00;101589;1267;1011198;-49
2023/03/13 09:42:13;;;;;;;1.10;0.60;;;;;;;-128.00;-1.00;-1.00;101697;1268;1012703;-48
2023/03/13 09:45:03;;;;;;;4.70;0.80;;;;;;;-128.00;-1.00;-1.00;102238;1268;1013326;-49
2023/03/13 09:48:20;;;;;;;1.30;0.60;;;;;;;-128.00;-1.00;-1.00;101698;1266;1013918;-49
2023/03/13 09:50:58;;;;;;;1.10;0.50;;;;;;;-128.00;-1.00;-1.00;101593;1268;1010898;-47
2023/03/13 09:53:33;;;;;;;2.70;0.50;;;;;;;-128.00;-1.00;-1.00;101783;1265;1011778;-46
2023/03/13 09:56:02;;;;;;;1.70;0.70;;;;;;;-128.00;-1.00;-1.00;101737;1268;1012415;-52
2023/03/13 09:58:30;;;;;;;1.10;0.60;;;;;;;-128.00;-1.00;-1.00;102298;1264;1012150;-47
2023/03/13 10:01:04;;;;;;;3.50;0.60;;;;;;;-128.00;-1.00;-1.00;102134;1257;1002401;-50
2023/03/13 10:03:37;;;;;;;0.80;0.50;;;;;;;-128.00;-1.00;-1.00;101967;1257;1013060;-51
2023/03/13 10:06:18;;;;;;;1.60;0.60;;;;;;;-128.00;-1.00;-1.00;105382;1257;1010936;-48
2023/03/13 10:08:51;;;;;;;1.00;0.60;;;;;;;-128.00;-1.00;-1.00;102797;1259;1013483;-49
2023/03/13 10:11:41;;;;;;;1.90;0.80;;;;;;;-128.00;-1.00;-1.00;102231;1257;1012544;-47
2023/03/13 10:14:12;;;;;;;2.40;0.70;;;;;;;-128.00;-1.00;-1.00;102194;1257;1012489;-47
2023/03/13 10:17:22;;;;;;;0.90;0.70;;;;;;;-128.00;-1.00;-1.00;102255;1256;1010594;-50
2023/03/13 10:19:56;;;;;;;3.60;0.70;;;;;;;-128.00;-1.00;-1.00;101940;1256;1011573;-49
2023/03/13 10:22:25;;;;;;;2.10;0.70;;;;;;;-128.00;-1.00;-1.00;102731;1256;1012916;-51
2023/03/13 10:25:08;;;;;;;3.80;0.60;;;;;;;-128.00;-1.00;-1.00;102118;1257;1012338;-47
2023/03/13 10:27:47;;;;;;;1.40;0.60;;;;;;;-128.00;-1.00;-1.00;102322;1263;1013159;-49
2023/03/13 10:30:24;;;;;;;0.80;0.60;;;;;;;-128.00;-1.00;-1.00;102223;1258;1009994;-49
2023/03/13 10:33:00;;;;;;;2.30;0.70;;;;;;;-128.00;-1.00;-1.00;105963;1258;1012171;-51
2023/03/13 10:35:34;;;;;;;1.80;0.50;;;;;;;-128.00;-1.00;-1.00;103659;1261;1013198;-48
2023/03/13 10:38:19;;;;;;;1.40;0.60;;;;;;;-128.00;-1.00;-1.00;102448;1261;1013140;-48
2023/03/13 10:41:04;;;;;;;1.70;0.70;;;;;;;-128.00;-1.00;-1.00;102264;1261;1013633;-48
2023/03/13 10:43:32;;;;;;;0.60;0.50;;;;;;;-128.00;-1.00;-1.00;102174;1261;1010078;-50
2023/03/13 10:46:02;;;;;;;2.30;0.80;;;;;;;-128.00;-1.00;-1.00;102972;1261;1004439;-49
2023/03/13 10:48:35;;;;;;;0.90;0.70;;;;;;;-128.00;-1.00;-1.00;102280;1260;1013458;-50
2023/03/13 10:51:19;;;;;;;1.00;0.70;;;;;;;-128.00;-1.00;-1.00;105931;1262;1012424;-47
2023/03/13 10:53:47;;;;;;;3.00;0.60;;;;;;;-128.00;-1.00;-1.00;102543;1256;1013373;-50
2023/03/13 10:56:18;;;;;;;1.30;0.70;;;;;;;-128.00;-1.00;-1.00;102160;1259;1002915;-50
2023/03/13 10:58:48;;;;;;;2.80;0.70;;;;;;;-128.00;-1.00;-1.00;101695;1256;1011458;-49
2023/03/13 11:01:27;;;;;;;1.00;0.60;;;;;;;-128.00;-1.00;-1.00;101875;1259;1013056;-51
2023/03/13 11:03:56;;;;;;;1.40;0.80;;;;;;;-128.00;-1.00;-1.00;101893;1261;1012578;-49
2023/03/13 11:06:25;;;;;;;3.90;0.90;;;;;;;-128.00;-1.00;-1.00;102078;1261;1012268;-53
2023/03/13 11:09:18;;;;;;;1.70;0.70;;;;;;;-128.00;-1.00;-1.00;101703;1261;1011004;-48
2023/03/13 11:11:54;;;;;;;1.40;0.80;;;;;;;-128.00;-1.00;-1.00;101992;1261;1011770;-50
2023/03/13 11:14:24;;;;;;;1.50;0.70;;;;;;;-128.00;-1.00;-1.00;104042;1259;1012895;-48
2023/03/13 11:17:24;;;;;;;1.40;0.90;;;;;;;-128.00;-1.00;-1.00;102569;1261;1012677;-50
2023/03/13 11:20:26;;;;;;;1.30;0.60;;;;;;;-128.00;-1.00;-1.00;102048;1260;1012941;-50
2023/03/13 11:23:10;;;;;;;0.60;0.50;;;;;;;-128.00;-1.00;-1.00;102381;1261;1010081;-50
2023/03/13 11:25:48;;;;;;;2.80;0.90;;;;;;;-128.00;-1.00;-1.00;102036;1259;1015124;-52
2023/03/13 11:28:24;;;;;;;1.20;0.60;;;;;;;-128.00;-1.00;-1.00;102416;1259;1012926;-53
2023/03/13 11:31:01;;;;;;;0.90;0.60;;;;;;;-128.00;-1.00;-1.00;105987;1260;1012183;-51
2023/03/13 11:33:49;;;;;;;2.00;0.60;;;;;;;-128.00;-1.00;-1.00;102488;1258;1013098;-47
2023/03/13 11:36:26;;;;;;;1.30;0.60;;;;;;;-128.00;-1.00;-1.00;101853;1261;1010928;-51
2023/03/13 11:38:59;;;;;;;0.80;0.60;;;;;;;-128.00;-1.00;-1.00;102065;1257;1011339;-52
2023/03/13 11:41:35;;;;;;;2.50;0.60;;;;;;;-128.00;-1.00;-1.00;102488;1257;1013747;-51
2023/03/13 11:44:16;;;;;;;1.30;0.60;;;;;;;-128.00;-1.00;-1.00;102231;1258;1012676;-47
2023/03/13 11:46:47;;;;;;;3.60;0.80;;;;;;;-128.00;-1.00;-1.00;102370;1259;1013311;-51
2023/03/13 11:49:41;;;;;;;2.10;0.60;;;;;;;-128.00;-1.00;-1.00;104038;1259;1010686;-51
2023/03/13 11:52:19;;;;;;;1.30;0.80;;;;;;;-128.00;-1.00;-1.00;102169;1261;1011105;-51
2023/03/13 11:54:57;;;;;;;2.10;0.60;;;;;;;-128.00;-1.00;-1.00;102106;1261;1013478;-51
2023/03/13 11:57:36;;;;;;;2.20;1.00;;;;;;;-128.00;-1.00;-1.00;102431;1257;1012674;-50
2023/03/13 12:00:24;;;;;;;9.00;3.20;;;;;;;-128.00;-1.00;-1.00;102122;1258;1015534;-47
2023/03/13 12:03:10;;;;;;;1.70;1.00;;;;;;;-128.00;-1.00;-1.00;102213;1261;1010525;-50
2023/03/13 12:05:47;;;;;;;1.80;0.60;;;;;;;-128.00;-1.00;-1.00;102029;1261;1011210;-49
2023/03/13 12:08:18;;;;;;;1.70;0.60;;;;;;;-128.00;-1.00;-1.00;102373;1261;1012587;-49
2023/03/13 12:11:01;;;;;;;1.60;0.60;;;;;;;-128.00;-1.00;-1.00;102004;1263;1012651;-51
2023/03/13 12:13:32;;;;;;;3.80;1.20;;;;;;;-128.00;-1.00;-1.00;102498;1262;1012383;-48
2023/03/13 12:16:02;;;;;;;1.00;0.70;;;;;;;-128.00;-1.00;-1.00;102086;1259;1009803;-50
2023/03/13 12:18:37;;;;;;;2.80;0.90;;;;;;;-128.00;-1.00;-1.00;102671;1261;1011151;-51
2023/03/13 12:21:27;;;;;;;1.30;0.60;;;;;;;-128.00;-1.00;-1.00;102097;1258;1013356;-49
2023/03/13 12:24:03;;;;;;;1.00;0.70;;;;;;;-128.00;-1.00;-1.00;101963;1264;1012700;-51
2023/03/13 12:26:32;;;;;;;1.00;0.60;;;;;;;-128.00;-1.00;-1.00;101987;1259;1012352;-49
2023/03/13 12:29:25;;;;;;;1.40;0.60;;;;;;;-128.00;-1.00;-1.00;102033;1261;1010525;-49
2023/03/13 12:31:58;;;;;;;0.80;0.60;;;;;;;-128.00;-1.00;-1.00;101954;1261;1011252;-52
2023/03/13 12:34:49;;;;;;;1.30;0.70;;;;;;;-128.00;-1.00;-1.00;103548;1257;1012819;-48
2023/03/13 12:37:29;;;;;;;1.20;0.60;;;;;;;-128.00;-1.00;-1.00;101925;1261;1014282;-49
2023/03/13 12:40:18;;;;;;;1.90;0.50;;;;;;;-128.00;-1.00;-1.00;102161;1261;1013566;-50
2023/03/13 12:42:54;;;;;;;1.40;0.60;;;;;;;-128.00;-1.00;-1.00;102276;1256;1010731;-49
2023/03/13 12:45:24;;;;;;;10.10;0.60;;;;;;;-128.00;-1.00;-1.00;102782;1258;1011517;-51
2023/03/13 12:48:19;;;;;;;1.90;0.40;;;;;;;-128.00;-1.00;-1.00;103822;1258;1012813;-52
2023/03/13 12:50:48;;;;;;;0.80;0.50;;;;;;;-128.00;-1.00;-1.00;102827;1258;1012259;-50
2023/03/13 12:53:28;;;;;;;2.10;0.60;;;;;;;-128.00;-1.00;-1.00;102239;1255;1013750;-53
2023/03/13 12:55:59;;;;;;;1.40;0.50;;;;;;;-128.00;-1.00;-1.00;101949;1259;1010944;-53
2023/03/13 12:58:48;;;;;;;0.80;0.50;;;;;;;-128.00;-1.00;-1.00;102173;1257;1011790;-52
2023/03/13 13:01:22;;;;;;;1.30;0.60;;;;;;;-128.00;-1.00;-1.00;102561;1254;1012958;-50
2023/03/13 13:04:26;;;;;;;1.60;0.60;;;;;;;-128.00;-1.00;-1.00;102793;1256;1012190;-49
2023/03/13 13:07:01;;;;;;;0.90;0.50;;;;;;;-128.00;-1.00;-1.00;101970;1267;1013126;-50
2023/03/13 13:09:38;;;;;;;1.30;0.60;;;;;;;-128.00;-1.00;-1.00;102311;1256;1010106;-50
2023/03/13 13:12:23;;;;;;;0.80;0.50;;;;;;;-128.00;-1.00;-1.00;102961;1258;1011251;-52
2023/03/13 13:14:51;;;;;;;1.10;0.70;;;;;;;-128.00;-1.00;-1.00;104286;1258;1012823;-53
2023/03/13 13:17:42;;;;;;;1.80;0.90;;;;;;;-128.00;-1.00;-1.00;102139;1256;1013022;-49
2023/03/13 13:20:32;;;;;;;0.80;0.60;;;;;;;-128.00;-1.00;-1.00;106192;1256;1013680;-50
2023/03/13 13:23:25;;;;;;;2.70;1.30;;;;;;;-128.00;-1.00;-1.00;106333;1255;1010590;-49
2023/03/13 13:25:54;;;;;;;2.40;0.70;;;;;;;-128.00;-1.00;-1.00;102449;1256;1010538;-49
2023/03/13 13:28:32;;;;;;;0.70;0.50;;;;;;;-128.00;-1.00;-1.00;102834;1259;1012641;-49
2023/03/13 13:31:00;;;;;;;;;;;;;;;-128.00;-1.00;-1.00;102378;1257;1013575;-49
2023/03/13 13:33:34;;;;;;;0.80;0.50;;;;;;;-128.00;-1.00;-1.00;102435;1256;1013508;-51
2023/03/13 13:36:09;;;;;;;1.00;0.70;;;;;;;-128.00;-1.00;-1.00;102742;1258;1010428;-51
2023/03/13 13:38:41;;;;;;;0.80;0.50;;;;;;;-128.00;-1.00;-1.00;102596;1258;1011534;-49
2023/03/13 13:41:10;;;;;;;1.00;0.60;;;;;;;-128.00;-1.00;-1.00;102356;1259;1013187;-52
2023/03/13 13:43:44;;;;;;;1.00;0.50;;;;;;;-128.00;-1.00;-1.00;102498;1258;1012679;-51
2023/03/13 13:46:29;;;;;;;1.60;0.60;;;;;;;-128.00;-1.00;-1.00;102410;1256;1012659;-49
2023/03/13 13:49:06;;;;;;;1.00;0.70;;;;;;;-128.00;-1.00;-1.00;102247;1258;1010654;-51
2023/03/13 13:52:02;;;;;;;1.20;0.70;;;;;;;-128.00;-1.00;-1.00;102516;1258;1011530;-50
2023/03/13 13:54:40;;;;;;;1.00;0.60;;;;;;;-128.00;-1.00;-1.00;102501;1259;1013404;-51
2023/03/13 13:57:44;;;;;;;1.80;0.70;;;;;;;-128.00;-1.00;-1.00;102643;1256;1012667;-51
2023/03/13 14:00:18;;;;;;;1.80;0.60;;;;;;;-128.00;-1.00;-1.00;101987;1261;1012720;-51